createdAt,value
2022-08-07T00:04:12.871Z,11.9
2022-08-07T00:09:17.970Z,11.8
2022-08-07T00:14:23.082Z,11.8
2022-08-07T00:19:29.062Z,11.6
2022-08-07T00:24:33.311Z,11.5
2022-08-07T00:29:38.410Z,11.4
2022-08-07T00:34:44.561Z,11.3
2022-08-07T00:39:50.605Z,11.3
2022-08-07T00:44:56.710Z,11.2
2022-08-07T00:50:02.802Z,11.2
2022-08-07T00:55:08.903Z,11.1
2022-08-07T01:00:14.995Z,11
2022-08-07T01:05:21.083Z,11
2022-08-07T01:10:27.184Z,11.1
2022-08-07T01:15:33.273Z,11
2022-08-07T01:20:39.375Z,11
2022-08-07T01:25:45.466Z,11
2022-08-07T01:30:51.989Z,11.2
2022-08-07T01:35:56.704Z,11.3
2022-08-07T01:41:02.765Z,11.1
2022-08-07T01:46:08.873Z,10.9
2022-08-07T01:51:14.962Z,10.8
2022-08-07T01:56:21.086Z,10.7
2022-08-07T02:01:27.146Z,10.5
2022-08-07T02:06:33.248Z,10.5
2022-08-07T02:11:38.366Z,10.5
2022-08-07T02:16:43.472Z,10.5
2022-08-07T02:21:49.571Z,10.5
2022-08-07T02:26:55.657Z,10.4
2022-08-07T02:32:01.753Z,10.4
2022-08-07T02:37:07.854Z,10.3
2022-08-07T02:42:13.938Z,10.2
2022-08-07T02:47:20.039Z,10.2
2022-08-07T02:52:26.138Z,10.1
2022-08-07T02:57:32.227Z,10.1
2022-08-07T03:02:38.315Z,10.1
2022-08-07T03:07:44.428Z,9.9
2022-08-07T03:12:50.520Z,9.9
2022-08-07T03:17:56.618Z,9.9
2022-08-07T03:23:01.732Z,9.8
2022-08-07T03:28:08.753Z,9.9
2022-08-07T03:33:13.929Z,9.8
2022-08-07T03:38:20.821Z,9.7
2022-08-07T03:43:26.116Z,9.7
2022-08-07T03:48:32.231Z,9.9
2022-08-07T03:53:38.303Z,9.8
2022-08-07T03:58:43.426Z,9.7
2022-08-07T04:03:49.372Z,9.8
2022-08-07T04:08:53.669Z,9.9
2022-08-07T04:13:58.766Z,9.9
2022-08-07T04:19:03.924Z,9.8
2022-08-07T04:24:08.997Z,9.8
2022-08-07T04:29:15.108Z,10
2022-08-07T04:34:21.182Z,10.1
2022-08-07T04:39:27.290Z,10.2
2022-08-07T04:44:33.396Z,10.3
2022-08-07T04:49:39.485Z,10.4
2022-08-07T04:54:45.600Z,10.5
2022-08-07T04:59:51.657Z,10.6
2022-08-07T05:04:57.757Z,10.7
2022-08-07T05:10:03.874Z,10.9
2022-08-07T05:15:09.950Z,11
2022-08-07T05:20:16.057Z,11.1
2022-08-07T05:25:22.154Z,11.3
2022-08-07T05:30:29.909Z,11.5
2022-08-07T05:35:33.338Z,11.7
2022-08-07T05:40:39.475Z,11.9
2022-08-07T05:45:45.546Z,12.2
2022-08-07T05:50:51.640Z,12.8
2022-08-07T05:55:57.743Z,13.2
2022-08-07T06:01:04.794Z,13.5
2022-08-07T06:06:09.384Z,13.7
2022-08-07T06:11:14.059Z,14
2022-08-07T06:16:19.208Z,14.3
2022-08-07T06:21:24.341Z,14.6
2022-08-07T06:26:30.388Z,14.8
2022-08-07T06:31:36.482Z,15.1
2022-08-07T06:36:42.563Z,15.5
2022-08-07T06:41:48.643Z,15.7
2022-08-07T06:46:54.856Z,15.9
2022-08-07T06:52:00.840Z,16.1
2022-08-07T06:57:06.951Z,16.3
2022-08-07T07:02:13.041Z,16.6
2022-08-07T07:07:19.161Z,16.9
2022-08-07T07:12:25.217Z,17.1
2022-08-07T07:17:31.344Z,17.3
2022-08-07T07:22:37.413Z,17.7
2022-08-07T07:27:48.731Z,18
2022-08-07T07:32:48.621Z,18.1
2022-08-07T07:37:54.709Z,18.2
2022-08-07T07:43:00.815Z,18.6
2022-08-07T07:48:06.898Z,18.9
2022-08-07T07:53:12.991Z,19.1
2022-08-07T07:58:19.089Z,19.3
2022-08-07T08:03:24.201Z,19.6
2022-08-07T08:08:32.129Z,19.7
2022-08-07T08:13:35.412Z,19.8
2022-08-07T08:18:41.494Z,20.1
2022-08-07T08:23:46.603Z,20.3
2022-08-07T08:28:51.718Z,20.5
2022-08-07T08:33:57.849Z,20.7
2022-08-07T08:39:03.938Z,21.2
2022-08-07T08:44:09.993Z,21.5
2022-08-07T08:49:16.101Z,21.9
2022-08-07T08:54:22.220Z,22.7
2022-08-07T08:59:28.307Z,24
2022-08-07T09:04:34.406Z,25.2
2022-08-07T09:09:40.498Z,27
2022-08-07T09:14:46.561Z,28.5
2022-08-07T09:19:52.654Z,29.5
2022-08-07T09:24:58.761Z,30.5
2022-08-07T09:30:04.892Z,26.5
2022-08-07T09:35:09.973Z,25.8
2022-08-07T09:40:16.055Z,28.6
2022-08-07T09:45:22.156Z,30.1
2022-08-07T09:50:28.262Z,29.5
2022-08-07T09:55:34.342Z,30.2
2022-08-07T10:00:40.432Z,26.7
2022-08-07T10:05:57.988Z,28
2022-08-07T10:10:51.665Z,30.9
2022-08-07T10:15:56.794Z,30.9
2022-08-07T10:21:02.859Z,33.4
2022-08-07T10:26:08.972Z,33.6
2022-08-07T10:31:15.076Z,33.7
2022-08-07T10:36:21.155Z,34.1
2022-08-07T10:41:27.253Z,33
2022-08-07T10:46:33.353Z,33.6
2022-08-07T10:51:39.461Z,33.8
2022-08-07T10:56:45.575Z,35.1
2022-08-07T11:01:51.628Z,35
2022-08-07T11:06:57.745Z,33
2022-08-07T11:12:03.826Z,33.1
2022-08-07T11:17:09.993Z,32.2
2022-08-07T11:22:15.130Z,33.4
2022-08-07T11:27:21.193Z,34.6
2022-08-07T11:32:27.300Z,34.4
2022-08-07T11:37:33.395Z,35.7
2022-08-07T11:42:39.497Z,34.9
2022-08-07T11:47:45.610Z,32.8
2022-08-07T11:52:51.688Z,32.7
2022-08-07T11:57:56.807Z,33.9
2022-08-07T12:03:01.923Z,34.5
2022-08-07T12:08:08.024Z,34.3
2022-08-07T12:13:14.112Z,34.6
2022-08-07T12:18:20.201Z,34.1
2022-08-07T12:23:26.312Z,33.9
2022-08-07T12:28:32.404Z,32.9
2022-08-07T12:33:46.261Z,31.9
2022-08-07T12:38:44.609Z,30.3
2022-08-07T12:43:58.760Z,28.2
2022-08-07T12:48:56.787Z,27.6
2022-08-07T12:54:02.881Z,27
2022-08-07T12:59:08.982Z,27.4
2022-08-07T13:04:15.121Z,28
2022-08-07T13:09:20.233Z,28
2022-08-07T13:14:26.309Z,27.9
2022-08-07T13:19:32.394Z,28
2022-08-07T13:24:38.520Z,26.8
2022-08-07T13:29:44.602Z,26.4
2022-08-07T13:34:50.694Z,26.2
2022-08-07T13:40:06.720Z,25.9
2022-08-07T13:45:01.906Z,25.9
2022-08-07T13:50:07.054Z,25.6
2022-08-07T13:55:12.124Z,26
2022-08-07T14:00:17.233Z,26.3
2022-08-07T14:05:22.365Z,26.2
2022-08-07T14:10:27.476Z,26.3
2022-08-07T14:15:33.555Z,26.2
2022-08-07T14:20:39.654Z,26.5
2022-08-07T14:25:45.742Z,26.8
2022-08-07T14:30:51.856Z,27.5
2022-08-07T14:35:57.940Z,29
2022-08-07T14:41:04.022Z,28.8
2022-08-07T14:46:10.151Z,27.6
2022-08-07T14:51:16.243Z,26.9
2022-08-07T14:56:22.338Z,26.5
2022-08-07T15:01:40.346Z,26.2
2022-08-07T15:06:34.543Z,25.8
2022-08-07T15:11:39.632Z,25.9
2022-08-07T15:16:44.764Z,25.8
2022-08-07T15:21:49.838Z,25.7
2022-08-07T15:26:54.946Z,25.6
2022-08-07T15:32:01.050Z,25.6
2022-08-07T15:37:07.192Z,25.6
2022-08-07T15:42:13.248Z,25.7
2022-08-07T15:47:19.379Z,25.7
2022-08-07T15:52:25.558Z,25.6
2022-08-07T15:57:31.537Z,25.6
2022-08-07T16:02:37.613Z,25.6
2022-08-07T16:07:43.699Z,25.4
2022-08-07T16:12:49.808Z,25.3
2022-08-07T16:17:55.907Z,25.2
2022-08-07T16:23:02.003Z,25.2
2022-08-07T16:28:08.101Z,25.6
2022-08-07T16:33:13.191Z,25.5
2022-08-07T16:38:19.317Z,25.3
2022-08-07T16:43:25.393Z,25.3
2022-08-07T16:48:31.482Z,25.2
2022-08-07T16:53:37.583Z,25.3
2022-08-07T16:58:43.675Z,25.8
2022-08-07T17:03:49.775Z,27.3
2022-08-07T17:08:54.897Z,27.6
2022-08-07T17:14:00.012Z,27.8
2022-08-07T17:19:05.143Z,27.8
2022-08-07T17:24:10.231Z,27.8
2022-08-07T17:29:16.329Z,26.7
2022-08-07T17:34:22.439Z,26.8
2022-08-07T17:39:28.510Z,27.3
2022-08-07T17:44:34.613Z,27.4
2022-08-07T17:49:40.691Z,27
2022-08-07T17:54:46.789Z,26.4
2022-08-07T17:59:52.886Z,25.7
2022-08-07T18:04:58.992Z,24.9
2022-08-07T18:10:05.079Z,24.2
2022-08-07T18:15:11.161Z,23.5
2022-08-07T18:20:17.295Z,23
2022-08-07T18:25:23.397Z,22.5
2022-08-07T18:30:28.492Z,22
2022-08-07T18:35:34.582Z,21.5
2022-08-07T18:40:40.698Z,21.2
2022-08-07T18:45:46.773Z,20.9
2022-08-07T18:50:52.891Z,20.5
2022-08-07T18:55:58.978Z,20.3
2022-08-07T19:01:05.061Z,20
2022-08-07T19:06:10.167Z,19.8
2022-08-07T19:11:15.456Z,19.6
2022-08-07T19:16:24.598Z,19.5
2022-08-07T19:21:26.505Z,19.3
2022-08-07T19:26:31.610Z,19.2
2022-08-07T19:31:37.703Z,19
2022-08-07T19:36:43.808Z,18.8
2022-08-07T19:41:49.900Z,18.7
2022-08-07T19:46:55.978Z,18.6
2022-08-07T19:52:02.089Z,18.5
2022-08-07T19:57:08.171Z,18.3
2022-08-07T20:02:14.266Z,18.2
2022-08-07T20:07:20.368Z,18.1
2022-08-07T20:12:26.459Z,18.1
2022-08-07T20:17:32.552Z,18
2022-08-07T20:22:38.635Z,17.9
2022-08-07T20:27:44.739Z,17.8
2022-08-07T20:32:49.866Z,17.8
2022-08-07T20:37:55.965Z,17.7
2022-08-07T20:43:02.053Z,17.7
2022-08-07T20:48:08.140Z,17.6
2022-08-07T20:53:14.241Z,18.1
2022-08-07T20:58:20.322Z,18.2
2022-08-07T21:03:26.420Z,17.9
2022-08-07T21:08:31.535Z,17.6
2022-08-07T21:13:36.650Z,17.3
2022-08-07T21:18:41.767Z,17.1
2022-08-07T21:23:46.870Z,16.9
2022-08-07T21:28:52.968Z,16.7
2022-08-07T21:33:59.061Z,16.6
2022-08-07T21:39:05.532Z,16.6
2022-08-07T21:44:11.270Z,16.5
2022-08-07T21:49:17.352Z,16.4
2022-08-07T21:54:23.433Z,16.3
2022-08-07T21:59:29.540Z,16.2
2022-08-07T22:04:37.440Z,16.1
2022-08-07T22:09:41.728Z,16
2022-08-07T22:14:47.821Z,15.9
2022-08-07T22:19:53.923Z,15.8
2022-08-07T22:25:00.014Z,15.7
2022-08-07T22:30:05.138Z,15.6
2022-08-07T22:35:11.233Z,15.6
2022-08-07T22:40:17.316Z,15.5
2022-08-07T22:45:23.411Z,15.3
2022-08-07T22:50:29.510Z,15.3
2022-08-07T22:55:35.591Z,15.2
2022-08-07T23:00:41.678Z,15.1
2022-08-07T23:05:46.803Z,15.1
2022-08-07T23:10:51.925Z,15
2022-08-07T23:16:04.213Z,14.9
2022-08-07T23:21:02.132Z,14.8
2022-08-07T23:26:08.226Z,14.8
2022-08-07T23:31:14.330Z,14.7
2022-08-07T23:36:20.431Z,14.6
2022-08-07T23:41:26.507Z,14.4
2022-08-07T23:46:32.618Z,14.2
2022-08-07T23:52:53.425Z,13.9
2022-08-07T23:56:44.798Z,13.7
